Time;durP1;ratioP1;P1;durP2;ratioP2;P2;SDS_P1;SDS_P2;PMS_P1;PMS_P2;Temp;Humidity;BMP_temperature;BMP_pressure;BME280_temperature;BME280_humidity;BME280_pressure;Samples;Min_cycle;Max_cycle;Signal;HPM_P1;HPM_P2
2023/06/14 00:00:07;;;;;;;0.68;0.68;;;16.10;1.00;;;;;;4955734;28;20050;-70
2023/06/14 00:02:33;;;;;;;0.60;0.60;;;16.10;1.00;;;;;;4970491;28;20502;-70
2023/06/14 00:05:00;;;;;;;0.95;0.30;;;16.10;1.00;;;;;;4970814;28;20056;-71
2023/06/14 00:07:38;;;;;;;0.30;0.30;;;16.00;1.00;;;;;;4990194;28;20511;-70
2023/06/14 00:10:05;;;;;;;0.73;0.30;;;16.00;1.00;;;;;;4982864;28;20391;-70
2023/06/14 00:12:31;;;;;;;0.52;0.40;;;15.90;1.00;;;;;;4972626;28;20125;-70
2023/06/14 00:14:58;;;;;;;0.63;0.63;;;15.90;1.00;;;;;;4971245;28;20085;-70
2023/06/14 00:17:24;;;;;;;0.43;0.43;;;15.90;1.00;;;;;;4955667;28;20426;-71
2023/06/14 00:19:51;;;;;;;0.57;0.40;;;15.90;1.00;;;;;;4972014;28;20112;-70
2023/06/14 00:22:17;;;;;;;0.40;0.30;;;15.90;1.00;;;;;;4970283;28;20412;-71
2023/06/14 00:24:44;;;;;;;0.30;0.30;;;15.80;1.00;;;;;;4956370;28;20058;-71
2023/06/14 00:27:11;;;;;;;0.28;0.28;;;15.80;1.00;;;;;;4987896;28;20382;-71
2023/06/14 00:29:37;;;;;;;0.98;0.40;;;15.80;1.00;;;;;;4972115;28;20042;-70
2023/06/14 00:32:04;;;;;;;0.63;0.45;;;15.70;1.00;;;;;;4987429;28;20109;-70
2023/06/14 00:34:30;;;;;;;0.40;0.40;;;15.70;1.00;;;;;;4956274;28;20078;-70
2023/06/14 00:36:57;;;;;;;2.70;0.45;;;15.70;1.00;;;;;;4989244;28;20100;-71
2023/06/14 00:39:23;;;;;;;0.35;0.35;;;15.70;1.00;;;;;;4988126;28;20046;-71
2023/06/14 00:41:50;;;;;;;0.47;0.47;;;15.70;1.00;;;;;;4972023;28;20512;-70
2023/06/14 00:44:17;;;;;;;0.98;0.70;;;15.70;1.00;;;;;;4969787;28;20042;-70
2023/06/14 00:46:47;;;;;;;0.38;0.38;;;15.60;1.00;;;;;;4971932;28;20460;-70
2023/06/14 00:49:17;;;;;;;0.75;0.30;;;15.60;1.00;;;;;;4970211;28;20050;-71
2023/06/14 00:51:44;;;;;;;0.50;0.50;;;15.60;1.00;;;;;;4987533;28;20089;-71
2023/06/14 00:54:10;;;;;;;0.52;0.30;;;15.60;2.00;;;;;;4971099;28;20046;-70
2023/06/14 00:56:37;;;;;;;0.75;0.60;;;15.60;3.10;;;;;;4971142;28;20129;-71
2023/06/14 00:59:04;;;;;;;1.23;0.80;;;15.60;4.60;;;;;;4971545;28;20547;-70
2023/06/14 01:01:33;;;;;;;0.50;0.35;;;15.60;5.10;;;;;;4969808;28;20038;-71
2023/06/14 01:04:01;;;;;;;;;;;15.50;5.40;;;;;;4955962;28;20095;-71
2023/06/14 01:06:44;;;;;;;3.00;0.65;;;15.50;5.90;;;;;;4969860;28;19922;-70
2023/06/14 01:09:18;;;;;;;0.40;0.40;;;15.50;7.50;;;;;;4970892;28;20049;-70
2023/06/14 01:12:00;;;;;;;2.67;0.60;;;15.50;8.30;;;;;;4971659;28;20042;-70
2023/06/14 01:14:28;;;;;;;0.93;0.50;;;15.50;10.20;;;;;;4948742;28;20053;-70
2023/06/14 01:16:57;;;;;;;1.17;0.50;;;15.50;10.10;;;;;;4984520;28;20137;-70
2023/06/14 01:19:25;;;;;;;0.60;0.60;;;15.40;10.50;;;;;;4986823;28;20086;-71
2023/06/14 01:21:52;;;;;;;0.67;0.67;;;15.40;11.10;;;;;;4986288;28;20080;-70
2023/06/14 01:24:23;;;;;;;2.33;0.70;;;15.40;11.10;;;;;;4969624;28;20401;-70
2023/06/14 01:26:55;;;;;;;0.50;0.50;;;15.40;12.30;;;;;;4970378;28;20038;-70
2023/06/14 01:29:27;;;;;;;3.53;0.60;;;15.30;13.30;;;;;;4970243;28;20089;-71
2023/06/14 01:31:54;;;;;;;0.38;0.38;;;15.40;14.40;;;;;;4969675;28;20062;-70
2023/06/14 01:34:21;;;;;;;1.05;0.60;;;15.40;16.00;;;;;;4971179;28;20089;-70
2023/06/14 01:36:48;;;;;;;0.52;0.40;;;15.30;15.50;;;;;;4963624;28;20050;-70
2023/06/14 01:39:15;;;;;;;0.43;0.43;;;15.30;16.60;;;;;;4970755;28;20038;-71
2023/06/14 01:41:44;;;;;;;2.63;0.52;;;15.30;16.40;;;;;;4970282;28;20093;-70
2023/06/14 01:44:13;;;;;;;3.50;0.70;;;15.30;16.90;;;;;;4969497;28;20563;-70
2023/06/14 01:46:42;;;;;;;0.50;0.50;;;15.30;18.90;;;;;;4939701;28;20057;-71
2023/06/14 01:49:10;;;;;;;0.43;0.43;;;15.30;20.50;;;;;;4969788;28;20046;-70
2023/06/14 01:51:37;;;;;;;2.17;0.50;;;15.30;21.10;;;;;;4970954;28;20089;-70
2023/06/14 01:54:03;;;;;;;0.47;0.47;;;15.30;22.80;;;;;;4968989;28;20344;-70
2023/06/14 01:56:30;;;;;;;0.57;0.57;;;15.30;23.00;;;;;;4970373;28;20050;-71
2023/06/14 01:58:57;;;;;;;0.50;0.45;;;15.30;25.00;;;;;;4970062;28;20520;-71
2023/06/14 02:01:23;;;;;;;1.45;0.93;;;15.30;23.60;;;;;;4986006;28;20073;-70
2023/06/14 02:03:51;;;;;;;0.40;0.40;;;15.30;24.90;;;;;;4970235;28;20452;-71
2023/06/14 02:06:17;;;;;;;0.70;0.63;;;15.30;24.80;;;;;;4967626;28;20047;-70
2023/06/14 02:08:44;;;;;;;0.52;0.52;;;15.30;24.30;;;;;;4954868;28;20050;-70
2023/06/14 02:11:11;;;;;;;2.55;0.65;;;15.20;23.90;;;;;;4986653;28;20061;-70
2023/06/14 02:13:37;;;;;;;0.93;0.57;;;15.20;24.50;;;;;;4988218;28;20107;-71
2023/06/14 02:16:04;;;;;;;0.50;0.50;;;15.20;25.40;;;;;;4983832;28;20046;-71
2023/06/14 02:18:30;;;;;;;2.35;0.50;;;15.20;26.10;;;;;;4969868;28;20050;-70
2023/06/14 02:20:57;;;;;;;2.28;0.70;;;15.20;26.40;;;;;;4966643;28;20062;-71
2023/06/14 02:23:23;;;;;;;0.40;0.40;;;15.20;27.20;;;;;;4933773;28;20118;-71
2023/06/14 02:25:50;;;;;;;1.67;0.70;;;15.20;27.80;;;;;;4951476;28;20054;-70
2023/06/14 02:28:17;;;;;;;1.15;0.70;;;15.20;29.20;;;;;;4966198;28;20125;-70
2023/06/14 02:30:43;;;;;;;0.88;0.55;;;15.20;29.60;;;;;;4951849;28;20504;-70
2023/06/14 02:33:12;;;;;;;0.85;0.70;;;15.20;31.00;;;;;;4950250;28;20054;-70
2023/06/14 02:35:39;;;;;;;0.50;0.50;;;15.20;31.70;;;;;;4951127;28;20146;-71
2023/06/14 02:38:05;;;;;;;0.73;0.60;;;15.20;33.70;;;;;;4966558;28;20065;-71
2023/06/14 02:40:31;;;;;;;2.63;0.70;;;15.20;36.00;;;;;;4952200;28;20047;-71
2023/06/14 02:42:58;;;;;;;0.73;0.50;;;15.20;36.50;;;;;;4954691;28;20050;-71
2023/06/14 02:45:24;;;;;;;1.20;0.55;;;15.10;38.30;;;;;;4953375;28;20393;-71
2023/06/14 02:47:51;;;;;;;2.28;0.60;;;15.10;38.40;;;;;;4954795;28;20065;-71
2023/06/14 02:50:17;;;;;;;0.60;0.60;;;15.10;40.40;;;;;;4970284;28;20460;-71
2023/06/14 02:52:45;;;;;;;3.00;0.50;;;15.10;42.00;;;;;;4954711;28;20046;-70
2023/06/14 02:55:11;;;;;;;0.98;0.77;;;15.00;42.90;;;;;;4954436;28;20061;-70
2023/06/14 02:57:38;;;;;;;0.82;0.80;;;15.00;45.00;;;;;;4953487;28;20360;-70
2023/06/14 03:00:05;;;;;;;2.45;0.70;;;15.00;47.70;;;;;;4972004;28;20058;-70
2023/06/14 03:02:31;;;;;;;1.13;0.70;;;15.00;47.30;;;;;;4969925;28;20055;-70
2023/06/14 03:05:01;;;;;;;0.60;0.60;;;15.00;49.70;;;;;;4971115;28;20057;-70
2023/06/14 03:07:29;;;;;;;;;;;14.90;49.90;;;;;;4937321;28;20039;-70
2023/06/14 03:09:55;;;;;;;7.68;0.65;;;14.90;51.20;;;;;;4954415;28;19938;-70
2023/06/14 03:12:23;;;;;;;2.80;0.77;;;14.90;52.10;;;;;;4953282;28;20057;-71
2023/06/14 03:14:51;;;;;;;1.50;0.90;;;14.90;52.00;;;;;;4970048;28;20042;-70
2023/06/14 03:17:19;;;;;;;0.80;0.65;;;14.90;52.80;;;;;;4954618;28;20058;-70
2023/06/14 03:19:46;;;;;;;0.80;0.80;;;14.80;53.70;;;;;;4952758;28;20055;-70
2023/06/14 03:22:13;;;;;;;0.95;0.95;;;14.80;55.80;;;;;;4967537;28;20098;-70
2023/06/14 03:24:41;;;;;;;0.80;0.80;;;14.80;57.70;;;;;;4989073;28;20042;-69
2023/06/14 03:27:09;;;;;;;0.75;0.75;;;14.80;58.10;;;;;;4973773;28;20057;-70
2023/06/14 03:29:36;;;;;;;1.52;1.05;;;14.80;59.00;;;;;;4971816;28;20045;-70
2023/06/14 03:32:03;;;;;;;1.38;0.93;;;14.70;60.50;;;;;;4973034;28;20595;-70
2023/06/14 03:34:30;;;;;;;6.85;0.77;;;14.70;60.80;;;;;;4973135;28;20077;-70
2023/06/14 03:36:56;;;;;;;2.22;0.80;;;14.70;60.90;;;;;;4989468;28;20038;-69
2023/06/14 03:39:23;;;;;;;0.82;0.82;;;14.70;61.90;;;;;;4956815;28;20410;-71
2023/06/14 03:41:49;;;;;;;1.08;1.02;;;14.70;62.80;;;;;;4953128;28;20043;-71
2023/06/14 03:44:18;;;;;;;0.98;0.88;;;14.70;63.40;;;;;;4963503;28;20485;-69
2023/06/14 03:46:45;;;;;;;0.90;0.90;;;14.60;65.60;;;;;;4971686;28;20219;-70
2023/06/14 03:49:12;;;;;;;1.70;1.00;;;14.60;67.30;;;;;;4972970;28;20137;-70
2023/06/14 03:51:39;;;;;;;1.77;0.82;;;14.60;67.80;;;;;;4952135;28;20050;-69
2023/06/14 03:54:06;;;;;;;0.80;0.80;;;14.60;69.20;;;;;;4956987;28;20054;-71
2023/06/14 03:56:33;;;;;;;2.50;0.80;;;14.60;70.70;;;;;;4980958;28;20058;-71
2023/06/14 03:58:59;;;;;;;0.80;0.80;;;14.60;71.80;;;;;;4988867;28;20053;-70
2023/06/14 04:01:29;;;;;;;0.63;0.63;;;14.60;73.50;;;;;;4973512;28;20077;-70
2023/06/14 04:03:58;;;;;;;1.08;0.75;;;14.60;73.00;;;;;;4955243;28;20046;-70
2023/06/14 04:06:32;;;;;;;;;;;14.60;73.80;;;;;;4990482;28;20516;-70
2023/06/14 04:09:03;;;;;;;1.55;0.98;;;14.60;73.80;;;;;;4970861;28;19944;-70
2023/06/14 04:11:30;;;;;;;0.90;0.82;;;14.70;74.30;;;;;;4971110;28;20050;-70
2023/06/14 04:13:57;;;;;;;0.98;0.70;;;14.70;75.00;;;;;;4972532;28;20469;-69
2023/06/14 04:16:24;;;;;;;2.78;0.80;;;14.70;76.50;;;;;;4955195;28;20060;-70
2023/06/14 04:18:52;;;;;;;2.17;1.10;;;14.70;78.40;;;;;;4956731;28;20058;-70
2023/06/14 04:21:19;;;;;;;0.68;0.68;;;14.70;78.80;;;;;;4964727;28;20070;-70
2023/06/14 04:23:46;;;;;;;0.90;0.90;;;14.70;77.60;;;;;;4969394;28;20047;-70
2023/06/14 04:26:12;;;;;;;0.80;0.70;;;14.80;79.00;;;;;;4951337;28;20389;-69
2023/06/14 04:28:40;;;;;;;1.02;0.73;;;14.80;80.20;;;;;;4935381;28;20046;-70
2023/06/14 04:31:08;;;;;;;1.38;1.08;;;14.90;81.80;;;;;;4952902;28;20374;-71
2023/06/14 04:33:46;;;;;;;0.60;0.60;;;14.80;80.70;;;;;;4951306;28;20358;-71
2023/06/14 04:36:13;;;;;;;1.30;1.23;;;14.90;81.50;;;;;;4952719;28;20578;-70
2023/06/14 04:38:41;;;;;;;1.65;1.08;;;14.90;82.20;;;;;;4951826;28;20393;-69
2023/06/14 04:41:11;;;;;;;1.75;1.10;;;14.90;83.20;;;;;;4936670;28;20463;-70
2023/06/14 04:43:38;;;;;;;1.05;0.90;;;14.90;83.50;;;;;;4952489;28;20142;-70
2023/06/14 04:46:10;;;;;;;0.95;0.93;;;15.00;80.80;;;;;;4968308;28;20121;-70
2023/06/14 04:48:42;;;;;;;1.02;0.93;;;15.00;79.70;;;;;;4969673;28;20100;-71
2023/06/14 04:51:09;;;;;;;1.05;0.95;;;15.00;79.00;;;;;;4968741;28;20050;-70
2023/06/14 04:53:36;;;;;;;0.88;0.88;;;15.10;78.00;;;;;;4952296;28;20057;-70
2023/06/14 04:56:03;;;;;;;1.20;0.82;;;15.10;78.00;;;;;;4967597;28;20485;-70
2023/06/14 04:58:30;;;;;;;2.10;1.00;;;15.20;77.20;;;;;;4951800;28;20054;-70
2023/06/14 05:00:59;;;;;;;1.23;0.90;;;15.20;77.10;;;;;;4952287;28;20051;-70
2023/06/14 05:03:26;;;;;;;1.02;0.88;;;15.20;77.70;;;;;;4967144;28;20124;-70
2023/06/14 05:05:53;;;;;;;0.93;0.90;;;15.30;79.40;;;;;;4952174;28;20537;-70
2023/06/14 05:08:23;;;;;;;0.88;0.88;;;15.40;76.10;;;;;;4950397;28;20100;-70
2023/06/14 05:10:50;;;;;;;1.20;0.90;;;15.50;76.80;;;;;;4952017;28;20055;-70
2023/06/14 05:13:17;;;;;;;2.90;1.20;;;15.60;76.10;;;;;;4951416;28;20126;-70
2023/06/14 05:15:43;;;;;;;2.97;0.90;;;15.80;77.40;;;;;;4967029;28;20413;-70
2023/06/14 05:18:10;;;;;;;0.90;0.90;;;15.90;73.90;;;;;;4952327;28;20054;-70
2023/06/14 05:20:39;;;;;;;0.60;0.60;;;15.90;69.40;;;;;;4951634;28;20047;-70
2023/06/14 05:23:07;;;;;;;1.95;1.10;;;15.90;72.30;;;;;;4969775;28;20175;-70
2023/06/14 05:25:33;;;;;;;1.45;0.80;;;15.90;70.30;;;;;;4969350;28;20405;-70
2023/06/14 05:28:00;;;;;;;1.48;0.85;;;15.80;67.60;;;;;;4951739;28;20093;-70
2023/06/14 05:30:26;;;;;;;1.55;0.98;;;15.90;71.00;;;;;;4969818;28;20092;-70
2023/06/14 05:32:52;;;;;;;1.00;1.00;;;15.90;67.50;;;;;;4970770;28;20058;-70
2023/06/14 05:35:19;;;;;;;1.02;1.00;;;15.90;62.60;;;;;;4970922;28;20045;-70
2023/06/14 05:37:45;;;;;;;3.13;1.00;;;15.90;62.20;;;;;;4950604;28;20181;-71
2023/06/14 05:40:12;;;;;;;1.40;1.08;;;15.90;64.00;;;;;;4968635;28;20469;-70
2023/06/14 05:42:39;;;;;;;3.00;1.02;;;16.00;64.10;;;;;;4962277;28;20490;-70
2023/06/14 05:45:06;;;;;;;1.27;0.82;;;16.10;64.10;;;;;;4975387;28;20477;-69
2023/06/14 05:47:34;;;;;;;1.02;0.95;;;16.20;61.70;;;;;;4976183;28;20516;-71
2023/06/14 05:50:00;;;;;;;1.30;1.02;;;16.20;57.00;;;;;;4996902;28;20049;-70
2023/06/14 05:52:27;;;;;;;1.77;1.35;;;16.30;57.50;;;;;;4976036;28;20069;-70
2023/06/14 05:54:54;;;;;;;1.75;1.15;;;16.30;62.00;;;;;;4973875;28;20057;-70
2023/06/14 05:57:21;;;;;;;2.40;0.88;;;16.50;63.70;;;;;;4965432;28;20063;-70
2023/06/14 05:59:47;;;;;;;1.17;0.90;;;16.50;57.30;;;;;;4970118;28;20173;-69
2023/06/14 06:02:20;;;;;;;2.35;0.90;;;16.60;55.60;;;;;;4968880;28;20053;-70
2023/06/14 06:04:46;;;;;;;1.33;1.13;;;16.70;58.30;;;;;;4980549;28;20066;-71
2023/06/14 06:07:12;;;;;;;1.08;1.05;;;16.80;47.00;;;;;;4951917;28;20067;-71
2023/06/14 06:09:39;;;;;;;1.10;0.93;;;16.90;39.90;;;;;;4996354;28;20054;-70
2023/06/14 06:12:07;;;;;;;2.25;1.08;;;16.80;35.80;;;;;;4981736;28;20124;-70
2023/06/14 06:14:34;;;;;;;0.90;0.90;;;16.80;39.30;;;;;;4996841;28;20408;-71
2023/06/14 06:17:00;;;;;;;1.60;1.10;;;16.90;40.90;;;;;;5003966;28;20061;-70
2023/06/14 06:19:27;;;;;;;1.17;0.60;;;17.00;45.00;;;;;;4990624;28;20045;-70
2023/06/14 06:21:53;;;;;;;0.98;0.68;;;17.00;44.30;;;;;;4972020;28;20059;-70
2023/06/14 06:24:20;;;;;;;2.90;1.08;;;17.00;35.50;;;;;;4948981;28;20122;-70
2023/06/14 06:26:46;;;;;;;1.30;1.00;;;17.10;36.70;;;;;;4947267;28;20058;-71
2023/06/14 06:29:14;;;;;;;1.35;0.80;;;17.20;41.30;;;;;;4954970;28;20058;-70
2023/06/14 06:31:40;;;;;;;1.55;1.00;;;17.30;34.60;;;;;;4956491;28;20061;-70
2023/06/14 06:34:07;;;;;;;0.95;0.73;;;17.40;28.70;;;;;;4963414;28;20046;-69
2023/06/14 06:36:33;;;;;;;1.02;0.90;;;17.50;32.90;;;;;;4959340;28;20448;-70
2023/06/14 06:39:00;;;;;;;0.88;0.88;;;17.60;30.50;;;;;;4975269;28;20148;-70
2023/06/14 06:41:26;;;;;;;0.70;0.70;;;17.60;24.40;;;;;;4980639;28;20050;-70
2023/06/14 06:43:53;;;;;;;1.70;1.08;;;17.70;27.40;;;;;;4959661;28;20113;-70
2023/06/14 06:46:19;;;;;;;0.77;0.77;;;17.80;28.50;;;;;;4977915;28;20047;-70
2023/06/14 06:48:46;;;;;;;1.92;0.65;;;17.90;31.20;;;;;;4958173;28;20054;-69
2023/06/14 06:51:12;;;;;;;2.47;0.90;;;18.00;28.70;;;;;;4957871;28;20118;-70
2023/06/14 06:53:39;;;;;;;0.95;0.90;;;18.10;27.40;;;;;;4936780;28;20125;-70
2023/06/14 06:56:05;;;;;;;2.22;0.85;;;18.20;29.60;;;;;;4958266;28;20043;-70
2023/06/14 06:58:32;;;;;;;1.10;0.90;;;18.20;17.00;;;;;;4956008;28;20085;-70
2023/06/14 07:00:58;;;;;;;1.17;0.90;;;18.30;15.50;;;;;;4956388;28;20133;-71
2023/06/14 07:03:25;;;;;;;0.82;0.82;;;18.40;10.00;;;;;;4957084;28;20098;-70
2023/06/14 07:05:51;;;;;;;0.60;0.60;;;18.40;19.40;;;;;;4954821;28;20063;-70
2023/06/14 07:08:18;;;;;;;0.95;0.80;;;18.50;12.90;;;;;;4954594;28;20109;-69
2023/06/14 07:10:44;;;;;;;1.02;1.00;;;18.70;9.40;;;;;;4952197;28;20059;-71
2023/06/14 07:13:11;;;;;;;1.27;0.95;;;18.80;4.70;;;;;;4977485;28;20133;-69
2023/06/14 07:15:38;;;;;;;1.85;1.05;;;18.90;1.00;;;;;;4964983;28;20086;-70
2023/06/14 07:18:06;;;;;;;0.73;0.73;;;19.10;1.00;;;;;;4952377;28;20053;-70
2023/06/14 07:20:33;;;;;;;0.50;0.50;;;19.30;5.10;;;;;;4964761;28;20105;-71
2023/06/14 07:23:00;;;;;;;0.73;0.73;;;19.40;1.00;;;;;;4961550;28;20054;-71
2023/06/14 07:25:26;;;;;;;1.33;0.85;;;19.50;1.00;;;;;;4956533;28;20089;-69
2023/06/14 07:27:54;;;;;;;0.80;0.80;;;19.70;1.00;;;;;;4961374;28;20074;-70
2023/06/14 07:30:21;;;;;;;1.08;0.90;;;19.80;1.00;;;;;;4957848;28;20042;-70
2023/06/14 07:32:47;;;;;;;1.80;0.85;;;19.90;1.00;;;;;;4958998;28;20094;-71
2023/06/14 07:35:14;;;;;;;1.02;1.02;;;20.20;1.00;;;;;;4940039;28;20062;-70
2023/06/14 07:37:40;;;;;;;2.60;0.80;;;20.40;1.00;;;;;;4955307;28;20062;-69
2023/06/14 07:40:08;;;;;;;1.75;1.02;;;20.60;1.00;;;;;;4951447;28;20050;-70
2023/06/14 07:42:36;;;;;;;0.93;0.80;;;20.90;1.00;;;;;;4953456;28;20390;-70
2023/06/14 07:45:04;;;;;;;0.82;0.82;;;21.20;1.00;;;;;;4960085;28;20042;-69
2023/06/14 07:47:30;;;;;;;1.25;0.55;;;21.50;1.00;;;;;;4926695;29;20105;-70
2023/06/14 07:49:57;;;;;;;6.28;1.75;;;21.90;1.00;;;;;;4926832;29;20091;-70
2023/06/14 07:52:23;;;;;;;0.70;0.70;;;22.10;1.00;;;;;;4927350;29;20058;-70
2023/06/14 07:54:50;;;;;;;0.80;0.80;;;22.20;1.00;;;;;;4923130;29;20131;-69
2023/06/14 07:57:19;;;;;;;0.70;0.68;;;22.40;1.00;;;;;;4937135;29;20123;-70
2023/06/14 07:59:46;;;;;;;1.10;1.00;;;22.60;1.00;;;;;;4921104;29;20115;-70
2023/06/14 08:02:13;;;;;;;0.90;0.90;;;22.60;1.00;;;;;;4925847;29;20090;-70
2023/06/14 08:04:40;;;;;;;0.80;0.68;;;22.80;1.00;;;;;;4936765;29;20040;-69
2023/06/14 08:07:06;;;;;;;0.70;0.70;;;23.00;1.00;;;;;;4921861;29;20047;-70
2023/06/14 08:09:33;;;;;;;3.45;1.20;;;23.10;1.00;;;;;;4931924;29;20055;-70
2023/06/14 08:12:00;;;;;;;1.08;0.98;;;23.30;1.00;;;;;;4923575;29;20090;-69
2023/06/14 08:14:26;;;;;;;1.13;1.00;;;23.20;1.00;;;;;;4910568;29;20066;-70
2023/06/14 08:16:53;;;;;;;1.30;1.05;;;23.40;1.00;;;;;;4913080;29;20455;-70
2023/06/14 08:19:20;;;;;;;1.08;0.77;;;23.40;1.00;;;;;;4925725;29;20209;-69
2023/06/14 08:21:47;;;;;;;0.77;0.77;;;23.50;1.00;;;;;;4930459;29;20108;-70
2023/06/14 08:24:14;;;;;;;0.90;0.90;;;23.60;1.00;;;;;;4923726;28;20469;-70
2023/06/14 08:26:41;;;;;;;1.20;0.60;;;23.70;1.00;;;;;;4951817;28;20102;-70
2023/06/14 08:29:07;;;;;;;0.77;0.77;;;23.70;1.00;;;;;;4947083;28;20051;-70
2023/06/14 08:31:34;;;;;;;0.63;0.63;;;23.70;1.00;;;;;;4951362;28;20429;-70
2023/06/14 08:34:01;;;;;;;0.77;0.77;;;23.90;1.00;;;;;;4960496;28;21203;-69
2023/06/14 08:36:29;;;;;;;0.70;0.70;;;24.00;1.00;;;;;;4950132;28;20050;-70
2023/06/14 08:38:55;;;;;;;1.00;0.77;;;24.10;1.00;;;;;;4947812;28;20456;-70
2023/06/14 08:41:24;;;;;;;1.23;0.73;;;24.30;1.00;;;;;;4952070;28;20086;-69
2023/06/14 08:43:51;;;;;;;0.60;0.60;;;24.40;1.00;;;;;;4970658;28;20374;-69
2023/06/14 08:46:22;;;;;;;0.60;0.60;;;24.30;1.00;;;;;;4951966;28;20304;-69
2023/06/14 08:48:56;;;;;;;1.00;0.65;;;24.20;1.00;;;;;;4950879;28;20482;-70
2023/06/14 08:51:26;;;;;;;0.70;0.70;;;24.10;1.00;;;;;;4968699;28;20203;-70
2023/06/14 08:53:57;;;;;;;0.68;0.60;;;24.00;1.00;;;;;;4941133;28;20042;-69
2023/06/14 08:56:27;;;;;;;1.52;0.65;;;23.90;1.00;;;;;;4952330;28;20059;-69
2023/06/14 08:58:54;;;;;;;2.78;0.70;;;23.80;1.00;;;;;;4953178;28;20043;-69
2023/06/14 09:01:21;;;;;;;0.85;0.85;;;23.90;1.00;;;;;;4936507;28;20416;-69
2023/06/14 09:03:49;;;;;;;2.15;0.65;;;24.00;1.00;;;;;;4955017;28;20057;-69
2023/06/14 09:06:18;;;;;;;1.33;0.70;;;24.00;1.00;;;;;;4951717;28;20496;-70
2023/06/14 09:08:50;;;;;;;1.75;0.77;;;24.10;1.00;;;;;;4954300;28;20054;-69
2023/06/14 09:11:18;;;;;;;1.23;0.82;;;24.20;1.00;;;;;;4971222;28;20046;-69
2023/06/14 09:13:46;;;;;;;0.52;0.52;;;24.30;1.00;;;;;;4956578;28;20062;-69
2023/06/14 09:16:13;;;;;;;2.15;0.73;;;24.20;1.00;;;;;;4958823;28;20109;-70
2023/06/14 09:18:44;;;;;;;0.90;0.85;;;24.20;1.00;;;;;;4942822;28;20128;-70
2023/06/14 09:21:15;;;;;;;0.80;0.80;;;24.30;1.00;;;;;;4969616;28;20051;-70
2023/06/14 09:23:44;;;;;;;0.68;0.68;;;24.40;1.00;;;;;;4957513;28;20477;-70
2023/06/14 09:26:16;;;;;;;0.63;0.50;;;24.50;1.00;;;;;;4974740;28;20049;-70
2023/06/14 09:28:47;;;;;;;1.45;0.82;;;24.40;1.00;;;;;;4991264;28;20641;-69
2023/06/14 09:31:16;;;;;;;1.00;0.90;;;24.50;1.00;;;;;;4974288;28;20042;-69
2023/06/14 09:33:47;;;;;;;2.40;0.77;;;24.30;1.00;;;;;;4966861;28;20082;-70
2023/06/14 09:36:32;;;;;;;1.30;0.80;;;24.40;1.00;;;;;;4980709;28;20489;-69
2023/06/14 09:39:07;;;;;;;1.00;0.80;;;24.50;1.00;;;;;;4964129;28;20046;-71
2023/06/14 09:41:35;;;;;;;2.47;1.20;;;24.50;1.00;;;;;;4970653;28;20041;-70
2023/06/14 09:44:12;;;;;;;0.90;0.40;;;24.50;1.00;;;;;;4978043;28;20452;-70
2023/06/14 09:46:38;;;;;;;0.93;0.75;;;24.50;1.00;;;;;;4966007;28;20484;-70
2023/06/14 09:49:05;;;;;;;0.57;0.57;;;24.40;1.00;;;;;;4970326;28;20088;-70
2023/06/14 09:51:32;;;;;;;0.77;0.70;;;24.50;1.00;;;;;;4962101;28;20065;-70
2023/06/14 09:54:06;;;;;;;1.45;1.00;;;24.60;1.00;;;;;;4949112;28;20085;-69
2023/06/14 09:56:37;;;;;;;2.65;0.80;;;24.50;1.00;;;;;;4962075;28;20086;-69
2023/06/14 09:59:09;;;;;;;0.68;0.68;;;24.50;1.00;;;;;;4981106;28;20041;-70
2023/06/14 10:01:39;;;;;;;0.77;0.70;;;24.40;1.00;;;;;;4974069;28;20068;-70
2023/06/14 10:04:07;;;;;;;0.63;0.63;;;24.30;1.00;;;;;;4978246;28;20053;-70
2023/06/14 10:06:40;;;;;;;1.20;0.60;;;24.40;1.00;;;;;;4988163;28;20389;-69
2023/06/14 10:09:09;;;;;;;1.15;0.65;;;24.60;1.00;;;;;;4978987;28;20060;-69
2023/06/14 10:11:36;;;;;;;0.50;0.50;;;24.70;1.00;;;;;;4969839;28;20536;-69
2023/06/14 10:14:06;;;;;;;1.20;0.68;;;24.80;1.00;;;;;;4972886;28;20054;-70
2023/06/14 10:16:41;;;;;;;1.10;0.70;;;24.80;1.00;;;;;;4969700;28;20054;-69
2023/06/14 10:19:52;;;;;;;0.90;0.90;;;24.90;1.00;;;;;;4973540;28;20076;-69
2023/06/14 10:22:24;;;;;;;2.00;0.75;;;24.70;1.00;;;;;;4974160;28;20417;-70
2023/06/14 10:24:51;;;;;;;0.60;0.60;;;24.70;1.00;;;;;;4992371;28;20116;-70
2023/06/14 10:27:26;;;;;;;0.95;0.73;;;24.70;1.00;;;;;;4988070;28;20397;-68
2023/06/14 10:29:53;;;;;;;0.60;0.52;;;24.90;1.00;;;;;;5004916;28;20049;-69
2023/06/14 10:32:20;;;;;;;0.60;0.60;;;24.70;1.00;;;;;;4992383;28;20042;-69
2023/06/14 10:34:56;;;;;;;0.50;0.50;;;24.70;1.00;;;;;;4994624;28;20055;-69
2023/06/14 10:37:22;;;;;;;2.28;0.90;;;24.70;1.00;;;;;;4966997;28;20489;-69
2023/06/14 10:39:49;;;;;;;2.92;0.70;;;24.70;1.00;;;;;;4988475;28;20133;-70
2023/06/14 10:42:15;;;;;;;1.13;0.90;;;24.70;1.00;;;;;;4959279;28;20046;-70
2023/06/14 10:44:52;;;;;;;0.50;0.50;;;24.60;1.00;;;;;;4970462;28;20580;-70
2023/06/14 10:47:27;;;;;;;2.33;0.60;;;24.50;1.00;;;;;;4970600;28;20054;-69
2023/06/14 10:49:54;;;;;;;3.38;0.70;;;24.50;1.00;;;;;;4989167;28;20034;-69
2023/06/14 10:52:23;;;;;;;0.65;0.65;;;24.40;1.00;;;;;;4967506;28;20034;-69
2023/06/14 10:55:06;;;;;;;0.52;0.52;;;24.40;1.00;;;;;;4985964;28;20058;-69
2023/06/14 10:57:36;;;;;;;0.57;0.55;;;24.30;1.00;;;;;;4974416;28;20125;-69
2023/06/14 11:00:15;;;;;;;0.50;0.50;;;24.30;1.00;;;;;;4972949;28;20432;-69
2023/06/14 11:03:03;;;;;;;1.35;0.60;;;24.40;1.00;;;;;;4955542;28;20090;-68
2023/06/14 11:05:30;;;;;;;0.90;0.63;;;24.40;1.00;;;;;;4976757;28;20482;-68
2023/06/14 11:08:11;;;;;;;0.45;0.45;;;24.50;1.00;;;;;;4968761;28;20297;-69
2023/06/14 11:10:39;;;;;;;0.68;0.50;;;24.50;1.00;;;;;;4971624;28;20050;-69
2023/06/14 11:13:07;;;;;;;0.55;0.55;;;24.50;1.00;;;;;;4989412;28;20735;-70
2023/06/14 11:15:36;;;;;;;0.80;0.50;;;24.50;1.00;;;;;;4970525;28;20068;-69
2023/06/14 11:18:03;;;;;;;;;;;24.50;1.00;;;;;;4989600;28;20049;-69
2023/06/14 11:20:32;;;;;;;0.45;0.45;;;24.50;1.00;;;;;;4970112;28;20017;-68
2023/06/14 11:22:59;;;;;;;0.52;0.52;;;24.50;1.00;;;;;;4974215;28;20437;-69
2023/06/14 11:25:28;;;;;;;0.30;0.30;;;24.60;1.00;;;;;;4971709;28;20477;-69
2023/06/14 11:27:55;;;;;;;0.68;0.30;;;24.50;1.00;;;;;;4979842;28;20073;-68
2023/06/14 11:30:22;;;;;;;0.60;0.60;;;24.40;1.00;;;;;;4961334;28;20132;-69
2023/06/14 11:32:53;;;;;;;0.40;0.40;;;24.40;1.00;;;;;;4990578;28;20439;-70
2023/06/14 11:35:23;;;;;;;0.47;0.47;;;24.40;1.00;;;;;;4974359;28;20552;-69
2023/06/14 11:37:55;;;;;;;0.45;0.45;;;24.50;1.00;;;;;;4988912;28;20046;-69
2023/06/14 11:40:24;;;;;;;0.43;0.40;;;24.50;1.00;;;;;;4987693;28;20371;-68
2023/06/14 11:43:01;;;;;;;0.73;0.73;;;24.50;1.00;;;;;;4971212;28;20069;-70
2023/06/14 11:45:32;;;;;;;0.47;0.38;;;24.50;1.00;;;;;;4970464;28;20034;-68
2023/06/14 11:47:59;;;;;;;0.52;0.52;;;24.50;1.00;;;;;;4990689;28;20047;-69
2023/06/14 11:50:27;;;;;;;0.93;0.50;;;24.50;1.00;;;;;;4990995;28;20732;-68
2023/06/14 11:52:57;;;;;;;0.40;0.40;;;24.40;1.00;;;;;;4975253;28;20050;-70
2023/06/14 11:55:25;;;;;;;0.75;0.43;;;24.40;1.00;;;;;;4977248;28;20062;-69
2023/06/14 11:57:55;;;;;;;1.45;0.30;;;24.40;1.00;;;;;;4973990;28;20065;-69
2023/06/14 12:00:27;;;;;;;0.55;0.50;;;24.50;1.00;;;;;;4992201;28;20043;-68
2023/06/14 12:02:57;;;;;;;0.90;0.57;;;24.60;1.00;;;;;;4973351;28;20057;-68
2023/06/14 12:05:25;;;;;;;0.50;0.50;;;24.60;1.00;;;;;;4977321;28;20077;-70
2023/06/14 12:08:02;;;;;;;0.82;0.60;;;24.60;1.00;;;;;;4972355;28;20038;-69
2023/06/14 12:10:30;;;;;;;1.00;0.50;;;24.60;1.00;;;;;;4970511;28;20480;-69
2023/06/14 12:13:00;;;;;;;0.50;0.50;;;24.60;1.00;;;;;;4961504;28;20076;-69
2023/06/14 12:15:29;;;;;;;0.40;0.35;;;24.50;1.00;;;;;;4969252;28;20481;-69
2023/06/14 12:17:57;;;;;;;0.63;0.52;;;24.50;1.00;;;;;;4987955;28;20034;-69
2023/06/14 12:20:30;;;;;;;0.70;0.70;;;24.50;1.00;;;;;;4986592;28;20046;-70
2023/06/14 12:23:00;;;;;;;1.98;0.43;;;24.50;1.00;;;;;;4988052;28;20116;-69
2023/06/14 12:25:35;;;;;;;0.50;0.50;;;24.50;1.00;;;;;;4987966;28;20512;-69
2023/06/14 12:28:06;;;;;;;0.47;0.40;;;24.30;1.00;;;;;;4971329;28;20042;-69
2023/06/14 12:30:33;;;;;;;0.40;0.40;;;24.50;1.00;;;;;;4988904;28;20109;-69
2023/06/14 12:33:01;;;;;;;0.47;0.47;;;24.50;1.00;;;;;;4987877;28;20042;-68
2023/06/14 12:35:27;;;;;;;0.47;0.40;;;24.60;1.00;;;;;;4972074;28;20054;-68
2023/06/14 12:38:00;;;;;;;0.47;0.47;;;24.60;1.00;;;;;;4971906;28;20671;-68
2023/06/14 12:40:27;;;;;;;0.40;0.40;;;24.50;1.00;;;;;;4988349;28;20069;-69
2023/06/14 12:42:53;;;;;;;0.57;0.57;;;24.50;1.00;;;;;;4988137;28;20046;-69
2023/06/14 12:45:19;;;;;;;0.50;0.50;;;24.40;1.00;;;;;;4970478;28;20521;-70
2023/06/14 12:47:46;;;;;;;0.68;0.50;;;24.30;1.00;;;;;;4988960;28;20049;-69
2023/06/14 12:50:12;;;;;;;0.40;0.40;;;24.10;1.00;;;;;;4987683;28;20050;-69
2023/06/14 12:52:39;;;;;;;0.50;0.50;;;24.10;1.00;;;;;;4989256;28;20749;-70
2023/06/14 12:55:06;;;;;;;0.50;0.50;;;24.30;1.00;;;;;;4970464;28;20050;-69
2023/06/14 12:57:32;;;;;;;0.40;0.32;;;24.40;1.00;;;;;;4971415;28;20101;-70